North Island Naval Air Station-Halsey Field
KNZY : now visible

Airfield :











YOU CAN JOIN US ON...

 
LOGIN :

Register | Disclaimer

   EN    FR    IT 

 









Legend :    VFR   Marginal VFR   IFR   Intensive IFR   Very Intensive IFR
Visi :
Ceiling :
>= 8 km
>= 3000ft
5 to 8 km
1000 to 3000 ft
1500m to 5 km
500 to 1000 ft
800 to 1500m
200 to 500 ft
< 800m
< 200 ft
Symbols :   Thunderstorms  Fog  Heavy snow  Heavy precipitations  Wind > 20 kt






- Airport Elevation : 26 ft


KNZY - North Island Naval Air Station-Halsey Field

CURRENT METAR :
  • 282119Z 24008KT 10SM BKN015 21/15 A2997 RMK AO2 T02110150

EXPIRED METARs :
  • 282052Z 22008KT 10SM SCT014 22/16 A2997 RMK AO2 SLP147 T02170156 58001
  • 282028Z 21008KT 10SM SCT015 22/16 A2997 RMK AO2 T02170156
  • 281952Z 17005KT 10SM BKN015 20/16 A2997 RMK AO2 SLP149 T02000156
  • 281852Z 22008KT 10SM BKN015 21/15 A2998 RMK AO2 SLP150 T02110150
  • 281840Z 20008KT 10SM BKN014 22/15 A2997 RMK AO2 T02170150

TAF TAF KNZY
Valid from the 28 at 15:00 until the 29 at 15:00 UTC


2815/2915 VRB06KT 9999 OVC012 QNH2989INS
TEMPO 2815/2818 29008KT SCT014
FM281800 29010KT 9999 SCT015 QNH2989INS
TEMPO 2819/2901 25010KT BKN015
FM290200 VRB06KT 9999 BKN012 QNH2990INS T22/2822Z T16/2913Z FS30103
KZLA FIR / North America



MET'MAP, your aeronautical weather chart ! - Copyright ORBIFLY December 2007 - Disclaimer

ORBIFLY MET'MAP TEAM :

Programming & Development : Alexandra Zaïnal
Concept & original design : Baudouin d'Aumeries
Assistance for programming : Marc-Olivier Méhu
Technical & hardware support : Manuel Goepfert

Contact : metmap@orbifly.com




SOURCES & CREDITS :

   NOAA       Earth
Advisory